sensor_id;sensor_type;location;lat;lon;timestamp;P1;durP1;ratioP1;P2;durP2;ratioP2
30020;SDS011;16861;52.294;7.760;2022-08-19T00:01:57;11.35;;;5.57;;
30020;SDS011;16861;52.294;7.760;2022-08-19T00:04:27;10.45;;;5.75;;
30020;SDS011;16861;52.294;7.760;2022-08-19T00:06:56;8.52;;;5.20;;
30020;SDS011;16861;52.294;7.760;2022-08-19T00:09:23;10.52;;;5.35;;
30020;SDS011;16861;52.294;7.760;2022-08-19T00:11:51;7.30;;;5.85;;
30020;SDS011;16861;52.294;7.760;2022-08-19T00:14:19;6.85;;;5.82;;
30020;SDS011;16861;52.294;7.760;2022-08-19T00:16:47;7.35;;;6.00;;
30020;SDS011;16861;52.294;7.760;2022-08-19T00:19:15;7.78;;;5.25;;
30020;SDS011;16861;52.294;7.760;2022-08-19T00:21:42;6.47;;;5.13;;
30020;SDS011;16861;52.294;7.760;2022-08-19T00:24:10;9.00;;;5.80;;
30020;SDS011;16861;52.294;7.760;2022-08-19T00:26:38;7.53;;;4.90;;
30020;SDS011;16861;52.294;7.760;2022-08-19T00:29:11;5.50;;;4.40;;
30020;SDS011;16861;52.294;7.760;2022-08-19T00:31:40;6.00;;;4.63;;
30020;SDS011;16861;52.294;7.760;2022-08-19T00:34:09;7.78;;;5.20;;
30020;SDS011;16861;52.294;7.760;2022-08-19T00:36:38;6.10;;;4.43;;
30020;SDS011;16861;52.294;7.760;2022-08-19T00:39:05;5.75;;;4.50;;
30020;SDS011;16861;52.294;7.760;2022-08-19T00:41:32;7.35;;;4.30;;
30020;SDS011;16861;52.294;7.760;2022-08-19T00:44:00;6.03;;;4.47;;
30020;SDS011;16861;52.294;7.760;2022-08-19T00:46:29;6.90;;;4.75;;
30020;SDS011;16861;52.294;7.760;2022-08-19T00:48:57;7.60;;;5.00;;
30020;SDS011;16861;52.294;7.760;2022-08-19T00:51:26;8.25;;;4.65;;
30020;SDS011;16861;52.294;7.760;2022-08-19T00:53:56;5.20;;;4.28;;
30020;SDS011;16861;52.294;7.760;2022-08-19T00:56:25;6.60;;;4.60;;
30020;SDS011;16861;52.294;7.760;2022-08-19T00:58:54;6.28;;;4.85;;
30020;SDS011;16861;52.294;7.760;2022-08-19T01:01:22;5.38;;;4.85;;
30020;SDS011;16861;52.294;7.760;2022-08-19T01:03:49;7.20;;;4.53;;
30020;SDS011;16861;52.294;7.760;2022-08-19T01:06:23;5.22;;;4.70;;
30020;SDS011;16861;52.294;7.760;2022-08-19T01:08:51;6.70;;;4.88;;
30020;SDS011;16861;52.294;7.760;2022-08-19T01:11:19;7.78;;;4.95;;
30020;SDS011;16861;52.294;7.760;2022-08-19T01:13:46;5.72;;;5.05;;
30020;SDS011;16861;52.294;7.760;2022-08-19T01:16:15;7.97;;;5.95;;
30020;SDS011;16861;52.294;7.760;2022-08-19T01:18:43;6.50;;;5.80;;
30020;SDS011;16861;52.294;7.760;2022-08-19T01:21:12;8.60;;;5.88;;
30020;SDS011;16861;52.294;7.760;2022-08-19T01:23:48;8.52;;;5.70;;
30020;SDS011;16861;52.294;7.760;2022-08-19T01:26:16;7.97;;;6.63;;
30020;SDS011;16861;52.294;7.760;2022-08-19T01:28:46;8.23;;;6.95;;
30020;SDS011;16861;52.294;7.760;2022-08-19T01:31:18;8.30;;;6.55;;
30020;SDS011;16861;52.294;7.760;2022-08-19T01:33:53;7.18;;;6.32;;
30020;SDS011;16861;52.294;7.760;2022-08-19T01:36:23;7.85;;;6.53;;
30020;SDS011;16861;52.294;7.760;2022-08-19T01:38:53;10.90;;;6.70;;
30020;SDS011;16861;52.294;7.760;2022-08-19T01:41:20;7.95;;;7.00;;
30020;SDS011;16861;52.294;7.760;2022-08-19T01:43:50;9.77;;;7.70;;
30020;SDS011;16861;52.294;7.760;2022-08-19T01:46:37;10.07;;;7.90;;
30020;SDS011;16861;52.294;7.760;2022-08-19T01:49:05;8.25;;;7.25;;
30020;SDS011;16861;52.294;7.760;2022-08-19T01:51:32;8.63;;;7.05;;
30020;SDS011;16861;52.294;7.760;2022-08-19T01:54:05;9.45;;;7.20;;
30020;SDS011;16861;52.294;7.760;2022-08-19T01:56:32;19.08;;;7.68;;
30020;SDS011;16861;52.294;7.760;2022-08-19T01:59:00;10.23;;;8.10;;
30020;SDS011;16861;52.294;7.760;2022-08-19T02:01:30;10.35;;;7.70;;
30020;SDS011;16861;52.294;7.760;2022-08-19T02:03:58;9.75;;;7.03;;
30020;SDS011;16861;52.294;7.760;2022-08-19T02:06:27;9.32;;;7.93;;
30020;SDS011;16861;52.294;7.760;2022-08-19T02:08:54;11.07;;;7.55;;
30020;SDS011;16861;52.294;7.760;2022-08-19T02:13:58;10.30;;;7.07;;
30020;SDS011;16861;52.294;7.760;2022-08-19T02:16:25;8.57;;;6.65;;
30020;SDS011;16861;52.294;7.760;2022-08-19T02:18:52;7.72;;;6.65;;
30020;SDS011;16861;52.294;7.760;2022-08-19T02:21:19;9.50;;;7.15;;
30020;SDS011;16861;52.294;7.760;2022-08-19T02:23:48;7.55;;;6.57;;
30020;SDS011;16861;52.294;7.760;2022-08-19T02:26:16;9.05;;;7.20;;
30020;SDS011;16861;52.294;7.760;2022-08-19T02:28:44;8.73;;;6.55;;
30020;SDS011;16861;52.294;7.760;2022-08-19T02:31:11;8.25;;;7.07;;
30020;SDS011;16861;52.294;7.760;2022-08-19T02:33:43;9.85;;;6.93;;
30020;SDS011;16861;52.294;7.760;2022-08-19T02:36:12;8.40;;;6.47;;
30020;SDS011;16861;52.294;7.760;2022-08-19T02:38:40;7.75;;;6.70;;
30020;SDS011;16861;52.294;7.760;2022-08-19T02:41:11;8.65;;;6.60;;
30020;SDS011;16861;52.294;7.760;2022-08-19T02:43:40;7.80;;;6.93;;
30020;SDS011;16861;52.294;7.760;2022-08-19T02:46:28;7.93;;;6.18;;
30020;SDS011;16861;52.294;7.760;2022-08-19T02:48:57;11.82;;;7.13;;
30020;SDS011;16861;52.294;7.760;2022-08-19T02:51:28;8.43;;;6.85;;
30020;SDS011;16861;52.294;7.760;2022-08-19T02:54:06;8.40;;;7.43;;
30020;SDS011;16861;52.294;7.760;2022-08-19T02:56:35;8.32;;;6.85;;
30020;SDS011;16861;52.294;7.760;2022-08-19T02:59:04;9.07;;;6.88;;
30020;SDS011;16861;52.294;7.760;2022-08-19T03:01:38;11.52;;;7.03;;
30020;SDS011;16861;52.294;7.760;2022-08-19T03:04:10;13.15;;;7.47;;
30020;SDS011;16861;52.294;7.760;2022-08-19T03:06:39;7.07;;;6.20;;
30020;SDS011;16861;52.294;7.760;2022-08-19T03:09:08;7.43;;;6.47;;
30020;SDS011;16861;52.294;7.760;2022-08-19T03:11:35;10.80;;;6.90;;
30020;SDS011;16861;52.294;7.760;2022-08-19T03:14:03;8.93;;;6.78;;
30020;SDS011;16861;52.294;7.760;2022-08-19T03:16:33;7.82;;;6.75;;
30020;SDS011;16861;52.294;7.760;2022-08-19T03:19:05;9.05;;;6.80;;
30020;SDS011;16861;52.294;7.760;2022-08-19T03:21:33;9.45;;;6.13;;
30020;SDS011;16861;52.294;7.760;2022-08-19T03:24:01;7.45;;;6.10;;
30020;SDS011;16861;52.294;7.760;2022-08-19T03:26:29;6.95;;;5.47;;
30020;SDS011;16861;52.294;7.760;2022-08-19T03:28:56;7.18;;;5.53;;
30020;SDS011;16861;52.294;7.760;2022-08-19T03:31:24;6.13;;;5.35;;
30020;SDS011;16861;52.294;7.760;2022-08-19T03:34:13;7.78;;;5.90;;
30020;SDS011;16861;52.294;7.760;2022-08-19T03:36:44;6.30;;;5.55;;
30020;SDS011;16861;52.294;7.760;2022-08-19T03:39:12;6.00;;;5.40;;
30020;SDS011;16861;52.294;7.760;2022-08-19T03:41:40;8.10;;;5.43;;
30020;SDS011;16861;52.294;7.760;2022-08-19T03:44:10;6.07;;;5.43;;
30020;SDS011;16861;52.294;7.760;2022-08-19T03:49:10;7.43;;;5.75;;
30020;SDS011;16861;52.294;7.760;2022-08-19T03:51:39;7.55;;;5.93;;
30020;SDS011;16861;52.294;7.760;2022-08-19T03:54:09;8.65;;;6.25;;
30020;SDS011;16861;52.294;7.760;2022-08-19T03:56:38;8.52;;;6.18;;
30020;SDS011;16861;52.294;7.760;2022-08-19T03:59:07;8.52;;;7.10;;
30020;SDS011;16861;52.294;7.760;2022-08-19T04:01:36;8.68;;;6.82;;
30020;SDS011;16861;52.294;7.760;2022-08-19T04:04:03;10.35;;;6.78;;
30020;SDS011;16861;52.294;7.760;2022-08-19T04:06:31;8.63;;;6.65;;
30020;SDS011;16861;52.294;7.760;2022-08-19T04:09:04;10.02;;;6.80;;
30020;SDS011;16861;52.294;7.760;2022-08-19T04:11:34;8.70;;;7.55;;
30020;SDS011;16861;52.294;7.760;2022-08-19T04:14:10;8.55;;;6.55;;
30020;SDS011;16861;52.294;7.760;2022-08-19T04:16:38;9.05;;;7.13;;
30020;SDS011;16861;52.294;7.760;2022-08-19T04:19:05;8.07;;;7.22;;
30020;SDS011;16861;52.294;7.760;2022-08-19T04:21:32;10.70;;;7.60;;
30020;SDS011;16861;52.294;7.760;2022-08-19T04:24:00;11.98;;;8.60;;
30020;SDS011;16861;52.294;7.760;2022-08-19T04:26:30;9.27;;;7.75;;
30020;SDS011;16861;52.294;7.760;2022-08-19T04:29:02;10.27;;;7.22;;
30020;SDS011;16861;52.294;7.760;2022-08-19T04:31:35;9.88;;;7.95;;
30020;SDS011;16861;52.294;7.760;2022-08-19T04:34:04;12.45;;;8.40;;
30020;SDS011;16861;52.294;7.760;2022-08-19T04:36:33;12.50;;;9.88;;
30020;SDS011;16861;52.294;7.760;2022-08-19T04:39:05;12.57;;;8.80;;
30020;SDS011;16861;52.294;7.760;2022-08-19T04:41:37;10.93;;;8.38;;
30020;SDS011;16861;52.294;7.760;2022-08-19T04:44:22;12.32;;;8.45;;
30020;SDS011;16861;52.294;7.760;2022-08-19T04:46:49;12.85;;;8.73;;
30020;SDS011;16861;52.294;7.760;2022-08-19T04:49:21;9.55;;;7.80;;
30020;SDS011;16861;52.294;7.760;2022-08-19T04:51:49;12.63;;;8.73;;
30020;SDS011;16861;52.294;7.760;2022-08-19T04:54:18;10.05;;;7.80;;
30020;SDS011;16861;52.294;7.760;2022-08-19T04:57:05;11.02;;;8.70;;
30020;SDS011;16861;52.294;7.760;2022-08-19T04:59:35;9.98;;;8.25;;
30020;SDS011;16861;52.294;7.760;2022-08-19T05:02:03;10.57;;;8.23;;
30020;SDS011;16861;52.294;7.760;2022-08-19T05:04:30;13.30;;;9.75;;
30020;SDS011;16861;52.294;7.760;2022-08-19T05:06:58;10.45;;;9.18;;
30020;SDS011;16861;52.294;7.760;2022-08-19T05:09:28;12.90;;;9.60;;
30020;SDS011;16861;52.294;7.760;2022-08-19T05:12:15;13.32;;;9.93;;
30020;SDS011;16861;52.294;7.760;2022-08-19T05:14:42;14.85;;;10.02;;
30020;SDS011;16861;52.294;7.760;2022-08-19T05:17:09;19.08;;;11.73;;
30020;SDS011;16861;52.294;7.760;2022-08-19T05:19:53;16.38;;;10.68;;
30020;SDS011;16861;52.294;7.760;2022-08-19T05:22:38;14.57;;;9.65;;
30020;SDS011;16861;52.294;7.760;2022-08-19T05:25:07;10.02;;;8.05;;
30020;SDS011;16861;52.294;7.760;2022-08-19T05:27:39;12.02;;;8.77;;
30020;SDS011;16861;52.294;7.760;2022-08-19T05:30:07;12.40;;;9.57;;
30020;SDS011;16861;52.294;7.760;2022-08-19T05:32:35;11.55;;;9.02;;
30020;SDS011;16861;52.294;7.760;2022-08-19T05:35:02;16.88;;;9.07;;
30020;SDS011;16861;52.294;7.760;2022-08-19T05:37:29;13.68;;;9.40;;
30020;SDS011;16861;52.294;7.760;2022-08-19T05:39:56;14.18;;;9.32;;
30020;SDS011;16861;52.294;7.760;2022-08-19T05:42:23;10.63;;;8.68;;
30020;SDS011;16861;52.294;7.760;2022-08-19T05:44:49;13.25;;;8.70;;
30020;SDS011;16861;52.294;7.760;2022-08-19T05:47:17;12.27;;;9.10;;
30020;SDS011;16861;52.294;7.760;2022-08-19T05:49:46;12.07;;;8.35;;
30020;SDS011;16861;52.294;7.760;2022-08-19T05:52:14;11.00;;;8.20;;
30020;SDS011;16861;52.294;7.760;2022-08-19T05:54:44;12.20;;;7.75;;
30020;SDS011;16861;52.294;7.760;2022-08-19T05:57:17;12.27;;;7.82;;
30020;SDS011;16861;52.294;7.760;2022-08-19T05:59:45;9.23;;;7.18;;
30020;SDS011;16861;52.294;7.760;2022-08-19T06:02:18;9.80;;;6.47;;
30020;SDS011;16861;52.294;7.760;2022-08-19T06:04:45;8.30;;;6.47;;
30020;SDS011;16861;52.294;7.760;2022-08-19T06:07:12;8.15;;;6.10;;
30020;SDS011;16861;52.294;7.760;2022-08-19T06:09:39;8.80;;;6.28;;
30020;SDS011;16861;52.294;7.760;2022-08-19T06:12:08;7.45;;;5.38;;
30020;SDS011;16861;52.294;7.760;2022-08-19T06:14:35;8.35;;;5.75;;
30020;SDS011;16861;52.294;7.760;2022-08-19T06:17:06;9.73;;;6.45;;
30020;SDS011;16861;52.294;7.760;2022-08-19T06:19:33;9.90;;;5.57;;
30020;SDS011;16861;52.294;7.760;2022-08-19T06:22:06;7.75;;;6.75;;
30020;SDS011;16861;52.294;7.760;2022-08-19T06:24:32;9.77;;;7.03;;
30020;SDS011;16861;52.294;7.760;2022-08-19T06:26:59;9.73;;;7.28;;
30020;SDS011;16861;52.294;7.760;2022-08-19T06:29:27;11.30;;;6.95;;
30020;SDS011;16861;52.294;7.760;2022-08-19T06:31:57;11.50;;;7.05;;
30020;SDS011;16861;52.294;7.760;2022-08-19T06:34:26;15.75;;;6.45;;
30020;SDS011;16861;52.294;7.760;2022-08-19T06:36:54;9.25;;;7.03;;
30020;SDS011;16861;52.294;7.760;2022-08-19T06:39:26;9.80;;;7.32;;
30020;SDS011;16861;52.294;7.760;2022-08-19T06:41:56;10.20;;;6.57;;
30020;SDS011;16861;52.294;7.760;2022-08-19T06:44:26;8.43;;;6.32;;
30020;SDS011;16861;52.294;7.760;2022-08-19T06:46:55;10.75;;;6.53;;
30020;SDS011;16861;52.294;7.760;2022-08-19T06:49:22;10.93;;;6.45;;
30020;SDS011;16861;52.294;7.760;2022-08-19T06:51:50;7.93;;;6.00;;
30020;SDS011;16861;52.294;7.760;2022-08-19T06:54:18;7.10;;;5.00;;
30020;SDS011;16861;52.294;7.760;2022-08-19T06:56:45;7.40;;;5.05;;
30020;SDS011;16861;52.294;7.760;2022-08-19T06:59:14;9.48;;;5.90;;
30020;SDS011;16861;52.294;7.760;2022-08-19T07:01:45;8.43;;;5.40;;
30020;SDS011;16861;52.294;7.760;2022-08-19T07:04:15;6.70;;;5.07;;
30020;SDS011;16861;52.294;7.760;2022-08-19T07:06:44;6.68;;;4.97;;
30020;SDS011;16861;52.294;7.760;2022-08-19T07:09:20;8.35;;;5.60;;
30020;SDS011;16861;52.294;7.760;2022-08-19T07:11:47;7.70;;;5.05;;
30020;SDS011;16861;52.294;7.760;2022-08-19T07:14:16;6.65;;;4.88;;
30020;SDS011;16861;52.294;7.760;2022-08-19T07:16:46;7.65;;;5.10;;
30020;SDS011;16861;52.294;7.760;2022-08-19T07:19:14;6.45;;;5.47;;
30020;SDS011;16861;52.294;7.760;2022-08-19T07:21:44;8.15;;;5.63;;
30020;SDS011;16861;52.294;7.760;2022-08-19T07:24:12;10.57;;;6.22;;
30020;SDS011;16861;52.294;7.760;2022-08-19T07:26:40;7.38;;;5.85;;
30020;SDS011;16861;52.294;7.760;2022-08-19T07:29:08;8.90;;;5.72;;
30020;SDS011;16861;52.294;7.760;2022-08-19T07:31:36;8.10;;;5.72;;
30020;SDS011;16861;52.294;7.760;2022-08-19T07:34:04;11.68;;;5.55;;
30020;SDS011;16861;52.294;7.760;2022-08-19T07:36:34;6.00;;;4.53;;
30020;SDS011;16861;52.294;7.760;2022-08-19T07:39:04;5.65;;;4.55;;
30020;SDS011;16861;52.294;7.760;2022-08-19T07:41:34;7.40;;;5.18;;
30020;SDS011;16861;52.294;7.760;2022-08-19T07:44:03;7.70;;;5.20;;
30020;SDS011;16861;52.294;7.760;2022-08-19T07:46:31;6.70;;;5.28;;
30020;SDS011;16861;52.294;7.760;2022-08-19T07:48:58;7.88;;;4.82;;
30020;SDS011;16861;52.294;7.760;2022-08-19T07:51:26;7.78;;;5.20;;
30020;SDS011;16861;52.294;7.760;2022-08-19T07:54:01;6.00;;;4.72;;
30020;SDS011;16861;52.294;7.760;2022-08-19T07:56:28;7.20;;;4.25;;
30020;SDS011;16861;52.294;7.760;2022-08-19T07:58:54;6.28;;;4.80;;
30020;SDS011;16861;52.294;7.760;2022-08-19T08:01:26;5.43;;;4.90;;
30020;SDS011;16861;52.294;7.760;2022-08-19T08:03:55;9.45;;;5.05;;
30020;SDS011;16861;52.294;7.760;2022-08-19T08:06:41;5.70;;;4.63;;
30020;SDS011;16861;52.294;7.760;2022-08-19T08:09:30;8.93;;;4.75;;
30020;SDS011;16861;52.294;7.760;2022-08-19T08:12:02;7.20;;;4.18;;
30020;SDS011;16861;52.294;7.760;2022-08-19T08:14:57;6.45;;;4.65;;
30020;SDS011;16861;52.294;7.760;2022-08-19T08:17:28;7.60;;;4.85;;
30020;SDS011;16861;52.294;7.760;2022-08-19T08:20:15;5.80;;;4.38;;
30020;SDS011;16861;52.294;7.760;2022-08-19T08:22:42;5.13;;;4.45;;
30020;SDS011;16861;52.294;7.760;2022-08-19T08:25:29;6.75;;;4.45;;
30020;SDS011;16861;52.294;7.760;2022-08-19T08:27:59;5.75;;;4.28;;
30020;SDS011;16861;52.294;7.760;2022-08-19T08:30:26;6.20;;;5.13;;
30020;SDS011;16861;52.294;7.760;2022-08-19T08:32:56;5.22;;;4.72;;
30020;SDS011;16861;52.294;7.760;2022-08-19T08:35:23;4.78;;;4.10;;
30020;SDS011;16861;52.294;7.760;2022-08-19T08:37:51;6.72;;;4.45;;
30020;SDS011;16861;52.294;7.760;2022-08-19T08:43:03;6.65;;;5.75;;
30020;SDS011;16861;52.294;7.760;2022-08-19T08:45:38;6.25;;;5.18;;
30020;SDS011;16861;52.294;7.760;2022-08-19T08:49:06;4.95;;;4.45;;
30020;SDS011;16861;52.294;7.760;2022-08-19T08:51:46;6.50;;;3.83;;
30020;SDS011;16861;52.294;7.760;2022-08-19T08:54:25;4.75;;;4.25;;
30020;SDS011;16861;52.294;7.760;2022-08-19T08:57:02;6.70;;;3.75;;
30020;SDS011;16861;52.294;7.760;2022-08-19T09:02:03;3.95;;;3.42;;
30020;SDS011;16861;52.294;7.760;2022-08-19T09:04:30;4.78;;;3.92;;
30020;SDS011;16861;52.294;7.760;2022-08-19T09:07:15;4.93;;;3.75;;
30020;SDS011;16861;52.294;7.760;2022-08-19T09:12:43;5.50;;;3.30;;
30020;SDS011;16861;52.294;7.760;2022-08-19T09:15:12;6.07;;;3.55;;
30020;SDS011;16861;52.294;7.760;2022-08-19T09:17:40;4.97;;;4.15;;
30020;SDS011;16861;52.294;7.760;2022-08-19T09:22:39;5.82;;;3.58;;
30020;SDS011;16861;52.294;7.760;2022-08-19T09:25:12;4.65;;;2.60;;
30020;SDS011;16861;52.294;7.760;2022-08-19T09:27:41;3.30;;;2.60;;
30020;SDS011;16861;52.294;7.760;2022-08-19T09:30:13;3.38;;;2.72;;
30020;SDS011;16861;52.294;7.760;2022-08-19T09:32:43;4.90;;;2.90;;
30020;SDS011;16861;52.294;7.760;2022-08-19T09:35:11;3.30;;;2.13;;
30020;SDS011;16861;52.294;7.760;2022-08-19T09:37:39;3.00;;;2.70;;
30020;SDS011;16861;52.294;7.760;2022-08-19T09:40:08;4.25;;;3.20;;
30020;SDS011;16861;52.294;7.760;2022-08-19T09:42:37;4.85;;;3.15;;
30020;SDS011;16861;52.294;7.760;2022-08-19T09:45:16;4.75;;;3.17;;
30020;SDS011;16861;52.294;7.760;2022-08-19T09:47:46;3.47;;;3.10;;
30020;SDS011;16861;52.294;7.760;2022-08-19T09:50:14;3.13;;;2.25;;
30020;SDS011;16861;52.294;7.760;2022-08-19T09:52:41;3.92;;;2.72;;
30020;SDS011;16861;52.294;7.760;2022-08-19T09:55:22;4.25;;;2.97;;
30020;SDS011;16861;52.294;7.760;2022-08-19T09:58:00;6.70;;;3.00;;
30020;SDS011;16861;52.294;7.760;2022-08-19T10:00:29;4.13;;;2.72;;
30020;SDS011;16861;52.294;7.760;2022-08-19T10:02:57;5.32;;;3.00;;
30020;SDS011;16861;52.294;7.760;2022-08-19T10:05:23;3.40;;;3.10;;
30020;SDS011;16861;52.294;7.760;2022-08-19T10:08:09;3.83;;;2.58;;
30020;SDS011;16861;52.294;7.760;2022-08-19T10:10:39;4.18;;;2.53;;
30020;SDS011;16861;52.294;7.760;2022-08-19T10:13:12;5.75;;;2.53;;
30020;SDS011;16861;52.294;7.760;2022-08-19T10:15:41;4.88;;;2.30;;
30020;SDS011;16861;52.294;7.760;2022-08-19T10:18:13;2.60;;;2.40;;
30020;SDS011;16861;52.294;7.760;2022-08-19T10:20:42;3.70;;;2.63;;
30020;SDS011;16861;52.294;7.760;2022-08-19T10:23:09;3.53;;;2.40;;
30020;SDS011;16861;52.294;7.760;2022-08-19T10:25:36;3.35;;;2.60;;
30020;SDS011;16861;52.294;7.760;2022-08-19T10:28:03;4.00;;;2.28;;
30020;SDS011;16861;52.294;7.760;2022-08-19T10:30:36;2.28;;;2.08;;
30020;SDS011;16861;52.294;7.760;2022-08-19T10:33:03;3.03;;;2.50;;
30020;SDS011;16861;52.294;7.760;2022-08-19T10:35:36;3.40;;;2.40;;
30020;SDS011;16861;52.294;7.760;2022-08-19T10:38:21;11.60;;;2.80;;
30020;SDS011;16861;52.294;7.760;2022-08-19T10:40:57;3.00;;;2.38;;
30020;SDS011;16861;52.294;7.760;2022-08-19T10:43:32;3.40;;;2.35;;
30020;SDS011;16861;52.294;7.760;2022-08-19T10:46:05;2.88;;;1.80;;
30020;SDS011;16861;52.294;7.760;2022-08-19T10:48:42;3.15;;;2.20;;
30020;SDS011;16861;52.294;7.760;2022-08-19T10:51:09;3.42;;;2.28;;
30020;SDS011;16861;52.294;7.760;2022-08-19T10:53:55;2.92;;;2.70;;
30020;SDS011;16861;52.294;7.760;2022-08-19T10:56:22;9.68;;;2.90;;
30020;SDS011;16861;52.294;7.760;2022-08-19T10:59:08;4.03;;;2.60;;
30020;SDS011;16861;52.294;7.760;2022-08-19T11:01:35;2.67;;;2.05;;
30020;SDS011;16861;52.294;7.760;2022-08-19T11:04:02;3.00;;;1.90;;
30020;SDS011;16861;52.294;7.760;2022-08-19T11:06:33;1.98;;;1.80;;
30020;SDS011;16861;52.294;7.760;2022-08-19T11:09:03;2.97;;;1.92;;
30020;SDS011;16861;52.294;7.760;2022-08-19T11:11:31;3.83;;;2.03;;
30020;SDS011;16861;52.294;7.760;2022-08-19T11:14:11;2.40;;;1.70;;
30020;SDS011;16861;52.294;7.760;2022-08-19T11:16:40;2.60;;;2.10;;
30020;SDS011;16861;52.294;7.760;2022-08-19T11:19:09;2.33;;;1.50;;
30020;SDS011;16861;52.294;7.760;2022-08-19T11:21:41;1.25;;;1.15;;
30020;SDS011;16861;52.294;7.760;2022-08-19T11:24:10;2.45;;;1.45;;
30020;SDS011;16861;52.294;7.760;2022-08-19T11:26:41;4.88;;;1.77;;
30020;SDS011;16861;52.294;7.760;2022-08-19T11:29:09;2.60;;;1.50;;
30020;SDS011;16861;52.294;7.760;2022-08-19T11:31:38;2.75;;;1.83;;
30020;SDS011;16861;52.294;7.760;2022-08-19T11:34:08;1.73;;;1.50;;
30020;SDS011;16861;52.294;7.760;2022-08-19T11:36:38;3.15;;;1.70;;
30020;SDS011;16861;52.294;7.760;2022-08-19T11:39:07;2.10;;;1.65;;
30020;SDS011;16861;52.294;7.760;2022-08-19T11:41:35;1.73;;;1.60;;
30020;SDS011;16861;52.294;7.760;2022-08-19T11:44:02;2.45;;;1.50;;
30020;SDS011;16861;52.294;7.760;2022-08-19T11:46:29;2.05;;;1.45;;
30020;SDS011;16861;52.294;7.760;2022-08-19T11:48:59;1.40;;;1.30;;
30020;SDS011;16861;52.294;7.760;2022-08-19T11:51:27;2.08;;;1.42;;
30020;SDS011;16861;52.294;7.760;2022-08-19T11:53:54;3.83;;;1.40;;
30020;SDS011;16861;52.294;7.760;2022-08-19T11:56:22;1.48;;;1.33;;
30020;SDS011;16861;52.294;7.760;2022-08-19T11:58:50;2.05;;;1.30;;
30020;SDS011;16861;52.294;7.760;2022-08-19T12:01:18;1.42;;;1.30;;
30020;SDS011;16861;52.294;7.760;2022-08-19T12:03:48;1.75;;;1.27;;
30020;SDS011;16861;52.294;7.760;2022-08-19T12:06:18;1.45;;;1.35;;
30020;SDS011;16861;52.294;7.760;2022-08-19T12:08:50;1.80;;;1.25;;
30020;SDS011;16861;52.294;7.760;2022-08-19T12:11:16;1.48;;;1.30;;
30020;SDS011;16861;52.294;7.760;2022-08-19T12:13:43;1.48;;;1.27;;
30020;SDS011;16861;52.294;7.760;2022-08-19T12:16:18;1.40;;;1.30;;
30020;SDS011;16861;52.294;7.760;2022-08-19T12:18:48;2.70;;;1.70;;
30020;SDS011;16861;52.294;7.760;2022-08-19T12:21:18;2.78;;;1.55;;
30020;SDS011;16861;52.294;7.760;2022-08-19T12:23:48;12.20;;;2.30;;
30020;SDS011;16861;52.294;7.760;2022-08-19T12:26:21;1.48;;;1.38;;
30020;SDS011;16861;52.294;7.760;2022-08-19T12:28:48;1.70;;;1.60;;
30020;SDS011;16861;52.294;7.760;2022-08-19T12:31:15;1.50;;;1.40;;
30020;SDS011;16861;52.294;7.760;2022-08-19T12:33:42;5.18;;;1.30;;
30020;SDS011;16861;52.294;7.760;2022-08-19T12:36:10;2.00;;;1.70;;
30020;SDS011;16861;52.294;7.760;2022-08-19T12:38:38;1.77;;;1.40;;
30020;SDS011;16861;52.294;7.760;2022-08-19T12:41:06;5.15;;;1.52;;
30020;SDS011;16861;52.294;7.760;2022-08-19T12:43:35;1.50;;;1.40;;
30020;SDS011;16861;52.294;7.760;2022-08-19T12:46:04;1.63;;;1.52;;
30020;SDS011;16861;52.294;7.760;2022-08-19T12:48:35;2.55;;;1.75;;
30020;SDS011;16861;52.294;7.760;2022-08-19T12:51:09;2.20;;;1.65;;
30020;SDS011;16861;52.294;7.760;2022-08-19T12:53:38;2.35;;;2.10;;
30020;SDS011;16861;52.294;7.760;2022-08-19T12:56:06;2.03;;;1.80;;
30020;SDS011;16861;52.294;7.760;2022-08-19T13:01:12;2.03;;;1.85;;
30020;SDS011;16861;52.294;7.760;2022-08-19T13:03:42;1.80;;;1.70;;
30020;SDS011;16861;52.294;7.760;2022-08-19T13:06:11;2.00;;;1.80;;
30020;SDS011;16861;52.294;7.760;2022-08-19T13:08:38;2.00;;;1.73;;
30020;SDS011;16861;52.294;7.760;2022-08-19T13:13:38;2.63;;;1.80;;
30020;SDS011;16861;52.294;7.760;2022-08-19T13:16:08;2.63;;;1.50;;
30020;SDS011;16861;52.294;7.760;2022-08-19T13:18:36;2.13;;;1.63;;
30020;SDS011;16861;52.294;7.760;2022-08-19T13:21:04;1.73;;;1.60;;
30020;SDS011;16861;52.294;7.760;2022-08-19T13:23:32;1.77;;;1.67;;
30020;SDS011;16861;52.294;7.760;2022-08-19T13:26:02;3.70;;;1.95;;
30020;SDS011;16861;52.294;7.760;2022-08-19T13:28:31;1.90;;;1.70;;
30020;SDS011;16861;52.294;7.760;2022-08-19T13:31:18;1.63;;;1.42;;
30020;SDS011;16861;52.294;7.760;2022-08-19T13:34:04;1.90;;;1.80;;
30020;SDS011;16861;52.294;7.760;2022-08-19T13:36:35;5.32;;;1.67;;
30020;SDS011;16861;52.294;7.760;2022-08-19T13:39:03;2.03;;;1.80;;
30020;SDS011;16861;52.294;7.760;2022-08-19T13:41:31;1.95;;;1.75;;
30020;SDS011;16861;52.294;7.760;2022-08-19T13:43:58;3.33;;;1.58;;
30020;SDS011;16861;52.294;7.760;2022-08-19T13:46:24;1.60;;;1.50;;
30020;SDS011;16861;52.294;7.760;2022-08-19T13:48:51;1.33;;;1.20;;
30020;SDS011;16861;52.294;7.760;2022-08-19T13:51:17;2.05;;;1.77;;
30020;SDS011;16861;52.294;7.760;2022-08-19T13:53:44;1.75;;;1.65;;
30020;SDS011;16861;52.294;7.760;2022-08-19T13:56:14;2.17;;;1.50;;
30020;SDS011;16861;52.294;7.760;2022-08-19T13:58:51;1.60;;;1.50;;
30020;SDS011;16861;52.294;7.760;2022-08-19T14:01:21;2.15;;;1.80;;
30020;SDS011;16861;52.294;7.760;2022-08-19T14:03:49;2.08;;;1.85;;
30020;SDS011;16861;52.294;7.760;2022-08-19T14:06:16;2.53;;;1.63;;
30020;SDS011;16861;52.294;7.760;2022-08-19T14:08:43;1.80;;;1.70;;
30020;SDS011;16861;52.294;7.760;2022-08-19T14:11:11;115.57;;;8.57;;
30020;SDS011;16861;52.294;7.760;2022-08-19T14:13:38;2.47;;;1.80;;
30020;SDS011;16861;52.294;7.760;2022-08-19T14:16:08;2.42;;;1.90;;
30020;SDS011;16861;52.294;7.760;2022-08-19T14:18:36;1.83;;;1.63;;
30020;SDS011;16861;52.294;7.760;2022-08-19T14:21:04;1.70;;;1.60;;
30020;SDS011;16861;52.294;7.760;2022-08-19T14:23:32;2.33;;;2.10;;
30020;SDS011;16861;52.294;7.760;2022-08-19T14:26:07;2.30;;;2.10;;
30020;SDS011;16861;52.294;7.760;2022-08-19T14:28:35;3.67;;;2.08;;
30020;SDS011;16861;52.294;7.760;2022-08-19T14:31:01;1.88;;;1.77;;
30020;SDS011;16861;52.294;7.760;2022-08-19T14:33:28;2.45;;;2.08;;
30020;SDS011;16861;52.294;7.760;2022-08-19T14:35:55;2.58;;;2.33;;
30020;SDS011;16861;52.294;7.760;2022-08-19T14:38:25;3.53;;;2.55;;
30020;SDS011;16861;52.294;7.760;2022-08-19T14:43:44;2.67;;;2.47;;
30020;SDS011;16861;52.294;7.760;2022-08-19T14:46:13;3.15;;;2.30;;
30020;SDS011;16861;52.294;7.760;2022-08-19T14:48:42;2.38;;;2.17;;
30020;SDS011;16861;52.294;7.760;2022-08-19T14:51:09;2.38;;;2.20;;
30020;SDS011;16861;52.294;7.760;2022-08-19T14:53:36;2.67;;;2.42;;
30020;SDS011;16861;52.294;7.760;2022-08-19T14:56:10;2.40;;;2.20;;
30020;SDS011;16861;52.294;7.760;2022-08-19T14:58:39;2.67;;;2.47;;
30020;SDS011;16861;52.294;7.760;2022-08-19T15:01:07;2.53;;;2.30;;
30020;SDS011;16861;52.294;7.760;2022-08-19T15:03:34;3.40;;;2.67;;
30020;SDS011;16861;52.294;7.760;2022-08-19T15:06:04;3.50;;;3.20;;
30020;SDS011;16861;52.294;7.760;2022-08-19T15:08:32;3.03;;;2.55;;
30020;SDS011;16861;52.294;7.760;2022-08-19T15:11:01;4.30;;;2.88;;
30020;SDS011;16861;52.294;7.760;2022-08-19T15:13:28;3.45;;;2.70;;
30020;SDS011;16861;52.294;7.760;2022-08-19T15:15:56;3.38;;;3.08;;
30020;SDS011;16861;52.294;7.760;2022-08-19T15:18:23;2.83;;;2.50;;
30020;SDS011;16861;52.294;7.760;2022-08-19T15:20:50;6.60;;;3.10;;
30020;SDS011;16861;52.294;7.760;2022-08-19T15:23:17;4.05;;;2.70;;
30020;SDS011;16861;52.294;7.760;2022-08-19T15:25:45;2.88;;;2.60;;
30020;SDS011;16861;52.294;7.760;2022-08-19T15:28:12;3.47;;;2.70;;